createdAt,value
2022-09-01T00:00:43.266Z,67.3
2022-09-01T00:01:43.861Z,67.9
2022-09-01T00:02:44.491Z,67.7
2022-09-01T00:03:45.052Z,67.5
2022-09-01T00:04:45.686Z,68.8
2022-09-01T00:05:46.291Z,69.3
2022-09-01T00:06:46.872Z,69.2
2022-09-01T00:07:47.473Z,69.6
2022-09-01T00:08:48.079Z,69.6
2022-09-01T00:09:48.667Z,69.7
2022-09-01T00:10:49.263Z,69.8
2022-09-01T00:11:50.659Z,69.9
2022-09-01T00:12:51.387Z,69.6
2022-09-01T00:13:51.984Z,69.8
2022-09-01T00:14:52.579Z,69.7
2022-09-01T00:15:53.261Z,69.8
2022-09-01T00:16:53.800Z,69.7
2022-09-01T00:17:54.392Z,69.9
2022-09-01T00:18:54.990Z,70.0
2022-09-01T00:19:55.605Z,71.6
2022-09-01T00:20:56.199Z,71.7
2022-09-01T00:21:56.792Z,71.2
2022-09-01T00:22:57.388Z,72.3
2022-09-01T00:23:57.983Z,72.0
2022-09-01T00:24:58.579Z,71.6
2022-09-01T00:25:59.173Z,72.0
2022-09-01T00:26:59.768Z,71.8
2022-09-01T00:28:00.370Z,72.9
2022-09-01T00:29:00.960Z,73.2
2022-09-01T00:30:01.555Z,73.5
2022-09-01T00:31:02.182Z,73.1
2022-09-01T00:32:02.765Z,73.2
2022-09-01T00:33:03.537Z,73.1
2022-09-01T00:34:04.133Z,73.2
2022-09-01T00:35:04.730Z,73.1
2022-09-01T00:36:05.320Z,73.6
2022-09-01T00:37:05.915Z,73.4
2022-09-01T00:38:06.510Z,73.0
2022-09-01T00:39:07.131Z,74.1
2022-09-01T00:40:07.777Z,73.9
2022-09-01T00:41:08.375Z,74.7
2022-09-01T00:42:08.968Z,74.4
2022-09-01T00:43:09.564Z,74.7
2022-09-01T00:44:10.157Z,75.2
2022-09-01T00:45:10.754Z,75.6
2022-09-01T00:46:11.371Z,76.1
2022-09-01T00:47:11.942Z,76.3
2022-09-01T00:48:13.262Z,75.5
2022-09-01T00:49:14.351Z,75.6
2022-09-01T00:50:14.946Z,75.3
2022-09-01T00:51:15.541Z,75.2
2022-09-01T00:52:16.135Z,74.5
2022-09-01T00:53:16.732Z,74.3
2022-09-01T00:54:17.326Z,74.3
2022-09-01T00:55:17.924Z,74.3
2022-09-01T00:56:18.535Z,74.5
2022-09-01T00:57:19.130Z,74.2
2022-09-01T00:58:20.254Z,74.5
2022-09-01T00:59:20.836Z,74.0
2022-09-01T01:00:21.428Z,74.1
2022-09-01T01:01:22.080Z,75.0
2022-09-01T01:02:22.705Z,74.5
2022-09-01T01:03:23.263Z,74.7
2022-09-01T01:04:23.859Z,74.2
2022-09-01T01:05:24.591Z,73.6
2022-09-01T01:06:25.187Z,73.6
2022-09-01T01:07:26.775Z,73.2
2022-09-01T01:08:27.369Z,73.4
2022-09-01T01:09:27.965Z,73.4
2022-09-01T01:10:28.558Z,72.8
2022-09-01T01:11:29.152Z,72.9
2022-09-01T01:12:29.745Z,74.1
2022-09-01T01:13:30.343Z,73.7
2022-09-01T01:14:30.938Z,73.8
2022-09-01T01:15:31.537Z,73.6
2022-09-01T01:16:32.154Z,74.1
2022-09-01T01:17:32.722Z,74.6
2022-09-01T01:18:33.318Z,73.6
2022-09-01T01:19:38.779Z,74.6
2022-09-01T01:20:35.518Z,74.1
2022-09-01T01:21:36.112Z,74.9
2022-09-01T01:22:36.708Z,74.7
2022-09-01T01:23:37.312Z,75.0
2022-09-01T01:24:37.898Z,74.4
2022-09-01T01:25:38.516Z,74.8
2022-09-01T01:26:39.110Z,75.2
2022-09-01T01:27:42.930Z,75.1
2022-09-01T01:28:41.294Z,75.4
2022-09-01T01:29:41.887Z,75.3
2022-09-01T01:30:42.535Z,75.4
2022-09-01T01:31:43.080Z,75.8
2022-09-01T01:32:43.691Z,75.7
2022-09-01T01:33:44.270Z,75.5
2022-09-01T01:34:44.863Z,75.8
2022-09-01T01:35:45.460Z,75.7
2022-09-01T01:36:46.054Z,75.8
2022-09-01T01:37:46.676Z,75.6
2022-09-01T01:38:47.248Z,76.3
2022-09-01T01:39:47.841Z,76.4
2022-09-01T01:40:48.465Z,76.8
2022-09-01T01:41:49.070Z,76.9
2022-09-01T01:42:49.629Z,77.0
2022-09-01T01:43:50.222Z,76.9
2022-09-01T01:44:50.818Z,77.3
2022-09-01T01:45:51.448Z,77.3
2022-09-01T01:46:52.014Z,77.2
2022-09-01T01:47:52.608Z,77.4
2022-09-01T01:48:53.203Z,77.4
2022-09-01T01:49:53.800Z,77.4
2022-09-01T01:50:54.393Z,77.2
2022-09-01T01:51:55.076Z,77.6
2022-09-01T01:52:58.314Z,77.2
2022-09-01T01:53:57.252Z,77.5
2022-09-01T01:55:00.154Z,77.6
2022-09-01T01:55:59.432Z,77.6
2022-09-01T01:57:00.032Z,77.1
2022-09-01T01:58:00.630Z,77.2
2022-09-01T01:59:01.218Z,77.3
2022-09-01T02:00:01.832Z,77.1
2022-09-01T02:01:02.503Z,77.0
2022-09-01T02:02:03.130Z,77.0
2022-09-01T02:03:03.679Z,77.3
2022-09-01T02:04:04.283Z,77.2
2022-09-01T02:05:04.864Z,77.1
2022-09-01T02:06:05.462Z,77.0
2022-09-01T02:07:06.054Z,77.4
2022-09-01T02:08:06.650Z,76.6
2022-09-01T02:09:07.263Z,76.8
2022-09-01T02:10:07.860Z,76.6
2022-09-01T02:11:08.460Z,76.8
2022-09-01T02:12:09.046Z,76.7
2022-09-01T02:13:09.641Z,76.5
2022-09-01T02:14:10.236Z,76.7
2022-09-01T02:15:10.830Z,76.8
2022-09-01T02:16:11.426Z,77.2
2022-09-01T02:17:12.098Z,76.8
2022-09-01T02:18:12.652Z,76.7
2022-09-01T02:19:13.246Z,76.6
2022-09-01T02:20:14.834Z,77.3
2022-09-01T02:21:18.460Z,77.3
2022-09-01T02:22:17.018Z,77.1
2022-09-01T02:23:17.612Z,77.2
2022-09-01T02:24:18.207Z,77.3
2022-09-01T02:25:18.801Z,77.4
2022-09-01T02:26:19.412Z,77.4
2022-09-01T02:27:19.990Z,77.4
2022-09-01T02:28:20.747Z,77.7
2022-09-01T02:29:21.334Z,78.1
2022-09-01T02:30:22.086Z,78.0
2022-09-01T02:31:22.651Z,77.7
2022-09-01T02:32:23.246Z,77.7
2022-09-01T02:33:23.839Z,78.0
2022-09-01T02:34:24.440Z,78.0
2022-09-01T02:35:25.028Z,78.2
2022-09-01T02:36:25.623Z,77.9
2022-09-01T02:37:26.218Z,77.8
2022-09-01T02:38:26.813Z,78.1
2022-09-01T02:39:27.407Z,78.3
2022-09-01T02:40:28.026Z,77.8
2022-09-01T02:41:28.596Z,77.8
2022-09-01T02:42:29.194Z,78.1
2022-09-01T02:43:29.787Z,77.7
2022-09-01T02:44:30.385Z,77.7
2022-09-01T02:45:31.003Z,77.1
2022-09-01T02:46:31.588Z,77.3
2022-09-01T02:47:32.169Z,77.4
2022-09-01T02:48:32.764Z,77.3
2022-09-01T02:49:33.711Z,77.1
2022-09-01T02:50:34.306Z,77.4
2022-09-01T02:51:34.899Z,77.5
2022-09-01T02:52:35.497Z,78.1
2022-09-01T02:53:36.091Z,77.5
2022-09-01T02:54:36.687Z,77.7
2022-09-01T02:55:37.282Z,77.8
2022-09-01T02:56:37.876Z,78.1
2022-09-01T02:57:38.473Z,78.1
2022-09-01T02:58:39.067Z,77.8
2022-09-01T02:59:43.687Z,77.8
2022-09-01T03:00:42.243Z,77.6
2022-09-01T03:01:42.835Z,77.9
2022-09-01T03:02:43.430Z,77.8
2022-09-01T03:03:44.026Z,78.4
2022-09-01T03:04:44.703Z,78.6
2022-09-01T03:05:45.268Z,78.2
2022-09-01T03:06:45.865Z,79.3
2022-09-01T03:07:46.460Z,79.3
2022-09-01T03:08:47.056Z,79.1
2022-09-01T03:09:47.649Z,79.5
2022-09-01T03:10:48.246Z,79.7
2022-09-01T03:11:48.844Z,78.4
2022-09-01T03:12:49.437Z,79.5
2022-09-01T03:13:50.031Z,79.6
2022-09-01T03:14:50.626Z,79.7
2022-09-01T03:15:51.225Z,79.8
2022-09-01T03:16:51.954Z,79.9
2022-09-01T03:17:52.556Z,80.0
2022-09-01T03:18:53.155Z,81.2
2022-09-01T03:19:53.748Z,81.0
2022-09-01T03:20:54.343Z,81.1
2022-09-01T03:21:54.937Z,80.8
2022-09-01T03:22:55.534Z,80.7
2022-09-01T03:23:56.127Z,80.8
2022-09-01T03:24:56.723Z,80.4
2022-09-01T03:25:57.317Z,80.9
2022-09-01T03:26:57.912Z,81.6
2022-09-01T03:27:58.507Z,81.6
2022-09-01T03:28:59.102Z,82.2
2022-09-01T03:29:59.695Z,81.9
2022-09-01T03:31:00.294Z,82.7
2022-09-01T03:32:00.939Z,82.0
2022-09-01T03:33:01.498Z,82.0
2022-09-01T03:34:02.090Z,83.0
2022-09-01T03:35:02.686Z,82.8
2022-09-01T03:36:03.280Z,82.5
2022-09-01T03:37:03.877Z,82.4
2022-09-01T03:38:04.469Z,82.5
2022-09-01T03:39:05.063Z,82.5
2022-09-01T03:40:05.687Z,82.5
2022-09-01T03:41:06.253Z,82.5
2022-09-01T03:42:06.846Z,82.5
2022-09-01T03:43:07.443Z,82.6
2022-09-01T03:44:08.038Z,82.6
2022-09-01T03:45:08.633Z,82.8
2022-09-01T03:46:09.336Z,82.8
2022-09-01T03:47:09.902Z,82.9
2022-09-01T03:48:10.496Z,83.9
2022-09-01T03:49:11.096Z,83.3
2022-09-01T03:50:11.686Z,83.5
2022-09-01T03:51:12.284Z,83.2
2022-09-01T03:52:12.883Z,83.4
2022-09-01T03:53:13.493Z,83.4
2022-09-01T03:54:14.094Z,83.4
2022-09-01T03:55:14.686Z,83.5
2022-09-01T03:56:15.310Z,83.8
2022-09-01T03:57:15.872Z,84.4
2022-09-01T03:58:17.363Z,84.8
2022-09-01T03:59:18.950Z,84.5
2022-09-01T04:00:19.547Z,85.2
2022-09-01T04:01:20.421Z,85.3
2022-09-01T04:02:21.045Z,85.7
2022-09-01T04:03:21.593Z,86.3
2022-09-01T04:04:22.203Z,86.3
2022-09-01T04:05:22.796Z,86.8
2022-09-01T04:06:23.411Z,87.1
2022-09-01T04:07:24.032Z,87.0
2022-09-01T04:08:24.620Z,87.1
2022-09-01T04:09:25.219Z,87.3
2022-09-01T04:10:25.816Z,87.3
2022-09-01T04:11:26.411Z,87.5
2022-09-01T04:12:27.007Z,86.8
2022-09-01T04:13:27.603Z,86.8
2022-09-01T04:14:29.921Z,87.8
2022-09-01T04:15:29.789Z,87.7
2022-09-01T04:16:30.447Z,87.1
2022-09-01T04:17:30.993Z,87.0
2022-09-01T04:18:31.587Z,87.1
2022-09-01T04:19:32.183Z,87.1
2022-09-01T04:20:32.780Z,86.8
2022-09-01T04:21:33.373Z,87.2
2022-09-01T04:22:33.972Z,87.0
2022-09-01T04:23:34.587Z,87.1
2022-09-01T04:24:35.185Z,87.0
2022-09-01T04:25:35.780Z,87.3
2022-09-01T04:26:36.396Z,87.3
2022-09-01T04:27:36.995Z,87.3
2022-09-01T04:28:37.592Z,87.1
2022-09-01T04:29:38.556Z,87.1
2022-09-01T04:30:39.106Z,86.9
2022-09-01T04:31:39.729Z,86.5
2022-09-01T04:32:40.299Z,86.0
2022-09-01T04:33:40.897Z,86.1
2022-09-01T04:34:41.493Z,86.2
2022-09-01T04:35:42.092Z,86.0
2022-09-01T04:36:42.692Z,85.7
2022-09-01T04:37:43.288Z,85.6
2022-09-01T04:38:43.887Z,84.7
2022-09-01T04:39:44.486Z,85.0
2022-09-01T04:40:45.122Z,85.5
2022-09-01T04:41:45.681Z,85.1
2022-09-01T04:42:46.299Z,85.1
2022-09-01T04:43:46.896Z,85.9
2022-09-01T04:44:47.516Z,85.4
2022-09-01T04:45:48.160Z,85.7
2022-09-01T04:46:48.714Z,86.2
2022-09-01T04:47:49.313Z,86.5
2022-09-01T04:48:49.930Z,86.5
2022-09-01T04:49:50.527Z,85.9
2022-09-01T04:50:51.128Z,86.1
2022-09-01T04:51:53.871Z,86.1
2022-09-01T04:52:53.319Z,85.8
2022-09-01T04:53:53.918Z,85.8
2022-09-01T04:54:54.518Z,85.8
2022-09-01T04:55:55.120Z,86.0
2022-09-01T04:56:55.717Z,86.1
2022-09-01T04:57:56.315Z,85.8
2022-09-01T04:58:56.916Z,86.1
2022-09-01T04:59:57.513Z,86.3
2022-09-01T05:00:58.188Z,86.1
2022-09-01T05:01:58.810Z,86.5
2022-09-01T05:02:59.364Z,86.2
2022-09-01T05:03:59.962Z,86.7
2022-09-01T05:05:00.561Z,86.8
2022-09-01T05:06:01.160Z,86.7
2022-09-01T05:07:01.836Z,87.1
2022-09-01T05:08:02.437Z,87.0
2022-09-01T05:09:03.037Z,86.5
2022-09-01T05:10:03.638Z,86.7
2022-09-01T05:11:04.238Z,86.4
2022-09-01T05:12:04.839Z,86.3
2022-09-01T05:13:05.439Z,86.3
2022-09-01T05:14:06.039Z,86.5
2022-09-01T05:15:06.642Z,86.1
2022-09-01T05:16:07.281Z,86.5
2022-09-01T05:17:07.876Z,86.5
2022-09-01T05:18:08.473Z,86.2
2022-09-01T05:19:09.075Z,86.1
2022-09-01T05:20:09.675Z,85.5
2022-09-01T05:21:10.276Z,85.2
2022-09-01T05:22:10.878Z,85.6
2022-09-01T05:23:11.497Z,85.3
2022-09-01T05:24:12.097Z,85.5
2022-09-01T05:25:12.700Z,85.4
2022-09-01T05:26:13.300Z,85.5
2022-09-01T05:27:13.903Z,85.4
2022-09-01T05:28:14.506Z,85.4
2022-09-01T05:29:15.103Z,85.7
2022-09-01T05:30:15.704Z,85.4
2022-09-01T05:31:16.355Z,86.1
2022-09-01T05:32:16.908Z,85.7
2022-09-01T05:33:21.221Z,85.5
2022-09-01T05:34:19.104Z,85.2
2022-09-01T05:35:19.703Z,85.1
2022-09-01T05:36:20.301Z,83.8
2022-09-01T05:37:20.902Z,81.0
2022-09-01T05:38:21.641Z,74.9
2022-09-01T05:39:22.238Z,71.5
2022-09-01T05:40:22.852Z,69.2
2022-09-01T05:41:23.435Z,64.8
2022-09-01T05:42:24.034Z,61.6
2022-09-01T05:43:24.634Z,60.7
2022-09-01T05:44:25.230Z,59.5
2022-09-01T05:45:25.831Z,58.3
2022-09-01T05:46:26.476Z,57.3
2022-09-01T05:47:27.035Z,56.2
2022-09-01T05:48:27.634Z,59.7
2022-09-01T05:49:28.253Z,59.8
2022-09-01T05:50:28.851Z,57.8
2022-09-01T05:51:46.385Z,56.1
2022-09-01T05:52:31.043Z,57.4
2022-09-01T05:53:31.644Z,57.9
2022-09-01T05:54:33.050Z,57.5
2022-09-01T05:55:33.671Z,57.6
2022-09-01T05:56:34.270Z,58.1
2022-09-01T05:57:35.309Z,56.6
2022-09-01T05:59:37.082Z,57.6
2022-09-01T06:00:37.682Z,55.1
2022-09-01T06:01:38.326Z,57.3
2022-09-01T06:02:39.077Z,56.3
2022-09-01T06:03:39.717Z,57.3
2022-09-01T06:04:40.334Z,57.1
2022-09-01T06:05:40.935Z,57.1
2022-09-01T06:07:01.773Z,55.8
2022-09-01T06:07:43.128Z,56.8
2022-09-01T06:08:46.822Z,55.6
2022-09-01T06:09:45.343Z,54.7
2022-09-01T06:10:45.943Z,55.1
2022-09-01T06:11:46.542Z,54.5
2022-09-01T06:12:48.750Z,54.1
2022-09-01T06:13:51.404Z,53.1
2022-09-01T06:14:50.327Z,54.2
2022-09-01T06:15:50.951Z,55.7
2022-09-01T06:16:51.525Z,57.0
2022-09-01T06:17:52.125Z,58.0
2022-09-01T06:18:52.722Z,57.0
2022-09-01T06:19:54.316Z,56.9
2022-09-01T06:20:54.920Z,56.4
2022-09-01T06:21:55.516Z,56.1
2022-09-01T06:22:56.118Z,55.4
2022-09-01T06:23:56.739Z,57.6
2022-09-01T06:25:01.807Z,58.1
2022-09-01T06:25:58.928Z,58.4
2022-09-01T06:26:59.527Z,59.6
2022-09-01T06:28:00.134Z,59.1
2022-09-01T06:29:00.725Z,57.7
2022-09-01T06:30:01.325Z,57.4
2022-09-01T06:31:01.975Z,56.1
2022-09-01T06:32:02.547Z,53.8
2022-09-01T06:33:03.141Z,53.0
2022-09-01T06:34:03.741Z,53.0
2022-09-01T06:35:05.272Z,55.6
2022-09-01T06:36:05.867Z,55.9
2022-09-01T06:37:06.461Z,55.2
2022-09-01T06:38:07.062Z,56.3
2022-09-01T06:39:07.679Z,55.6
2022-09-01T06:41:21.630Z,51.9
2022-09-01T06:42:22.232Z,50.8
2022-09-01T06:43:23.165Z,52.7
2022-09-01T06:44:23.493Z,53.3
2022-09-01T06:45:24.061Z,50.3
2022-09-01T06:46:24.695Z,50.5
2022-09-01T06:47:25.264Z,50.2
2022-09-01T06:48:25.892Z,49.1
2022-09-01T06:49:26.492Z,48.2
2022-09-01T06:51:28.699Z,49.3
2022-09-01T06:53:31.941Z,48.5
2022-09-01T06:53:32.725Z,48.7
2022-09-01T06:54:32.366Z,49.4
2022-09-01T06:55:32.966Z,49.4
2022-09-01T06:56:33.784Z,49.2
2022-09-01T06:58:36.976Z,49.3
2022-09-01T06:59:37.577Z,51.9
2022-09-01T07:00:38.193Z,51.4
2022-09-01T07:01:39.808Z,50.4
2022-09-01T07:02:40.447Z,50.3
2022-09-01T07:03:41.135Z,49.4
2022-09-01T07:04:41.790Z,50.2
2022-09-01T07:07:00.086Z,48.7
2022-09-01T07:09:53.342Z,52.1
2022-09-01T07:11:22.125Z,53.3
2022-09-01T07:12:08.858Z,54.2
2022-09-01T07:13:08.993Z,55.4
2022-09-01T07:18:01.519Z,52.6
2022-09-01T07:19:02.120Z,53.6
2022-09-01T07:21:09.382Z,55.1
2022-09-01T07:22:07.283Z,54.7
2022-09-01T07:23:07.355Z,55.5
2022-09-01T07:24:10.534Z,54.9
2022-09-01T07:25:12.154Z,55.6
2022-09-01T07:26:10.990Z,57.1
2022-09-01T07:27:11.593Z,57.7
2022-09-01T07:28:15.849Z,59.5
2022-09-01T07:29:13.792Z,58.0
2022-09-01T07:30:15.198Z,59.6
2022-09-01T07:35:22.183Z,58.7
2022-09-01T07:36:26.854Z,58.3
2022-09-01T07:43:33.996Z,61.5
2022-09-01T07:44:34.552Z,61.7
2022-09-01T07:45:35.155Z,62.8
2022-09-01T07:46:37.398Z,63.8
2022-09-01T07:47:53.335Z,63.7
2022-09-01T07:50:11.375Z,63.7
2022-09-01T07:51:35.290Z,63.2
2022-09-01T07:51:43.651Z,63.7
2022-09-01T07:52:44.213Z,64.3
2022-09-01T07:53:44.816Z,63.6
2022-09-01T07:54:45.419Z,63.0
2022-09-01T07:55:46.023Z,63.0
2022-09-01T07:56:46.644Z,63.4
2022-09-01T07:57:47.267Z,63.9
2022-09-01T07:58:47.868Z,62.9
2022-09-01T07:59:48.472Z,63.1
2022-09-01T08:00:49.072Z,63.9
2022-09-01T08:01:49.713Z,63.3
2022-09-01T08:02:52.044Z,62.9
2022-09-01T08:03:51.887Z,63.5
2022-09-01T08:04:52.483Z,63.7
2022-09-01T08:05:53.087Z,64.3
2022-09-01T08:06:53.685Z,63.6
2022-09-01T08:07:54.289Z,64.7
2022-09-01T08:08:56.972Z,64.1
2022-09-01T08:10:01.463Z,63.5
2022-09-01T08:11:05.426Z,63.0
2022-09-01T08:12:02.331Z,61.7
2022-09-01T08:13:00.290Z,62.5
2022-09-01T08:14:00.895Z,62.0
2022-09-01T08:16:07.500Z,62.5
2022-09-01T08:17:50.508Z,63.1
2022-09-01T08:18:06.333Z,63.6
2022-09-01T08:19:16.410Z,61.6
2022-09-01T08:20:08.509Z,62.7
2022-09-01T08:21:10.058Z,61.8
2022-09-01T08:22:10.662Z,62.2
2022-09-01T08:23:11.261Z,62.2
2022-09-01T08:24:11.862Z,62.0
2022-09-01T08:25:12.466Z,62.2
2022-09-01T08:26:13.071Z,61.5
2022-09-01T08:27:13.673Z,60.7
2022-09-01T08:28:14.516Z,61.5
2022-09-01T08:29:15.116Z,61.4
2022-09-01T08:30:15.722Z,61.4
2022-09-01T08:31:16.387Z,60.7
2022-09-01T08:32:16.958Z,60.7
2022-09-01T08:33:17.560Z,61.5
2022-09-01T08:34:18.166Z,60.7
2022-09-01T08:35:19.115Z,60.9
2022-09-01T08:36:23.678Z,60.0
2022-09-01T08:37:21.312Z,59.5
2022-09-01T08:38:22.025Z,58.8
2022-09-01T08:39:22.626Z,59.6
2022-09-01T08:40:23.298Z,58.8
2022-09-01T08:41:28.667Z,58.2
2022-09-01T08:42:25.448Z,57.8
2022-09-01T08:43:27.044Z,58.1
2022-09-01T08:44:27.647Z,57.6
2022-09-01T08:45:28.246Z,58.1
2022-09-01T08:46:28.931Z,57.8
2022-09-01T08:47:39.492Z,58.1
2022-09-01T08:49:23.781Z,58.8
2022-09-01T08:49:42.761Z,59.3
2022-09-01T08:50:34.899Z,60.5
2022-09-01T08:51:35.478Z,60.4
2022-09-01T08:52:36.081Z,58.6
2022-09-01T08:53:36.682Z,57.7
2022-09-01T08:54:37.434Z,58.3
2022-09-01T08:55:39.325Z,58.4
2022-09-01T08:56:39.938Z,58.2
2022-09-01T08:57:40.540Z,57.3
2022-09-01T08:58:41.143Z,57.8
2022-09-01T08:59:41.743Z,57.2
2022-09-01T09:00:42.346Z,55.2
2022-09-01T09:01:42.983Z,57.6
2022-09-01T09:02:43.599Z,55.9
2022-09-01T09:03:44.174Z,56.8
2022-09-01T09:04:44.779Z,56.0
2022-09-01T09:05:45.380Z,56.4
2022-09-01T09:06:45.983Z,56.8
2022-09-01T09:07:46.585Z,57.8
2022-09-01T09:08:47.188Z,57.4
2022-09-01T09:09:53.726Z,56.5
2022-09-01T09:10:49.406Z,57.1
2022-09-01T09:11:50.025Z,56.5
2022-09-01T09:12:50.658Z,56.6
2022-09-01T09:13:51.244Z,57.5
2022-09-01T09:14:51.848Z,56.6
2022-09-01T09:15:52.647Z,56.1
2022-09-01T09:16:53.674Z,55.8
2022-09-01T09:17:59.564Z,55.2
2022-09-01T09:18:56.601Z,55.8
2022-09-01T09:19:57.280Z,57.0
2022-09-01T09:20:57.882Z,56.0
2022-09-01T09:21:58.493Z,55.8
2022-09-01T09:22:59.841Z,55.7
2022-09-01T09:24:00.420Z,56.1
2022-09-01T09:25:01.024Z,54.6
2022-09-01T09:26:01.628Z,55.7
2022-09-01T09:27:02.256Z,55.9
2022-09-01T09:28:02.849Z,56.5
2022-09-01T09:29:03.452Z,55.8
2022-09-01T09:30:08.318Z,54.9
2022-09-01T09:31:05.717Z,55.1
2022-09-01T09:32:06.476Z,53.3
2022-09-01T09:33:44.353Z,52.6
2022-09-01T09:34:08.506Z,52.8
2022-09-01T09:35:09.109Z,54.0
2022-09-01T09:36:09.734Z,54.1
2022-09-01T09:37:10.335Z,52.8
2022-09-01T09:38:10.936Z,53.6
2022-09-01T09:39:11.539Z,54.1
2022-09-01T09:40:12.140Z,52.7
2022-09-01T09:41:17.859Z,51.8
2022-09-01T09:42:14.337Z,50.9
2022-09-01T09:43:15.775Z,50.4
2022-09-01T09:44:16.373Z,52.2
2022-09-01T09:45:16.976Z,52.0
2022-09-01T09:46:25.466Z,50.5
2022-09-01T09:47:42.349Z,51.2
2022-09-01T09:48:20.771Z,50.0
2022-09-01T09:49:34.266Z,50.3
2022-09-01T09:50:22.969Z,49.4
2022-09-01T09:51:23.574Z,50.1
2022-09-01T09:52:24.174Z,49.8
2022-09-01T09:53:24.777Z,49.4
2022-09-01T09:54:25.557Z,49.5
2022-09-01T09:55:26.830Z,50.0
2022-09-01T09:56:27.430Z,50.5
2022-09-01T09:57:29.027Z,51.7
2022-09-01T09:58:29.630Z,51.7
2022-09-01T09:59:54.063Z,52.1
2022-09-01T10:00:31.827Z,50.2
2022-09-01T10:01:32.562Z,50.1
2022-09-01T10:02:33.267Z,50.8
2022-09-01T10:03:33.873Z,50.5
2022-09-01T10:04:35.434Z,50.5
2022-09-01T10:05:36.461Z,51.2
2022-09-01T10:06:37.054Z,50.5
2022-09-01T10:07:37.675Z,50.2
2022-09-01T10:08:38.262Z,51.7
2022-09-01T10:09:38.866Z,51.5
2022-09-01T10:10:39.479Z,51.2
2022-09-01T10:11:41.649Z,50.2
2022-09-01T10:12:41.672Z,50.3
2022-09-01T10:13:42.275Z,51.9
2022-09-01T10:14:52.217Z,50.3
2022-09-01T10:15:44.475Z,50.3
2022-09-01T10:16:46.061Z,50.3
2022-09-01T10:17:47.131Z,50.7
2022-09-01T10:18:47.791Z,50.3
2022-09-01T10:19:48.401Z,49.4
2022-09-01T10:20:48.997Z,49.6
2022-09-01T10:21:49.601Z,49.2
2022-09-01T10:22:50.732Z,49.2
2022-09-01T10:23:50.820Z,49.5
2022-09-01T10:24:51.423Z,49.4
2022-09-01T10:25:52.036Z,50.8
2022-09-01T10:26:52.628Z,52.3
2022-09-01T10:27:54.989Z,51.8
2022-09-01T10:28:55.185Z,52.0
2022-09-01T10:30:20.553Z,51.9
2022-09-01T10:30:57.475Z,50.5
2022-09-01T10:32:21.241Z,51.4
2022-09-01T10:33:06.822Z,49.4
2022-09-01T10:34:00.248Z,48.8
2022-09-01T10:35:01.646Z,48.4
2022-09-01T10:36:06.831Z,48.2
2022-09-01T10:37:04.554Z,48.3
2022-09-01T10:38:05.172Z,48.0
2022-09-01T10:39:08.953Z,48.4
2022-09-01T10:40:07.487Z,48.3
2022-09-01T10:41:10.121Z,48.1
2022-09-01T10:42:09.639Z,47.8
2022-09-01T10:43:12.409Z,48.6
2022-09-01T10:44:10.863Z,47.4
2022-09-01T10:45:11.524Z,47.0
2022-09-01T10:46:15.984Z,48.0
2022-09-01T10:47:14.530Z,48.3
2022-09-01T10:48:14.814Z,47.2
2022-09-01T10:49:15.996Z,47.6
2022-09-01T10:50:16.608Z,47.9
2022-09-01T10:51:19.023Z,47.6
2022-09-01T10:52:19.015Z,47.2
2022-09-01T10:53:19.577Z,47.3
2022-09-01T10:54:20.180Z,48.2
2022-09-01T10:55:25.222Z,47.5
2022-09-01T10:56:28.316Z,46.9
2022-09-01T10:57:27.681Z,46.6
2022-09-01T10:59:32.053Z,46.9
2022-09-01T11:00:36.843Z,46.4
2022-09-01T11:01:47.814Z,46.5
2022-09-01T11:02:36.343Z,46.3
2022-09-01T11:03:41.087Z,45.6
2022-09-01T11:04:35.574Z,47.2
2022-09-01T11:05:36.189Z,46.8
2022-09-01T11:06:36.772Z,46.8
2022-09-01T11:08:38.970Z,46.9
2022-09-01T11:09:39.573Z,46.4
2022-09-01T11:10:40.175Z,46.0
2022-09-01T11:11:40.779Z,45.8
2022-09-01T11:12:42.149Z,44.9
2022-09-01T11:13:45.260Z,45.4
2022-09-01T11:14:44.332Z,44.1
2022-09-01T11:15:45.119Z,43.9
2022-09-01T11:16:46.232Z,43.7
2022-09-01T11:17:47.254Z,43.0
2022-09-01T11:18:47.856Z,42.4
2022-09-01T11:19:49.178Z,42.7
2022-09-01T11:20:49.778Z,42.7
2022-09-01T11:21:50.381Z,42.2
2022-09-01T11:22:52.839Z,42.1
2022-09-01T11:23:52.795Z,42.1
2022-09-01T11:25:00.138Z,42.6
2022-09-01T11:26:56.563Z,44.0
2022-09-01T11:27:57.168Z,43.7
2022-09-01T11:28:58.677Z,44.2
2022-09-01T11:29:59.280Z,45.0
2022-09-01T11:30:59.883Z,45.3
2022-09-01T11:32:00.527Z,45.7
2022-09-01T11:33:01.123Z,44.5
2022-09-01T11:34:01.742Z,44.5
2022-09-01T11:35:02.340Z,46.0
2022-09-01T11:36:02.948Z,44.5
2022-09-01T11:37:03.567Z,45.4
2022-09-01T11:38:04.312Z,45.0
2022-09-01T11:39:04.915Z,45.3
2022-09-01T11:40:05.573Z,45.0
2022-09-01T11:41:06.136Z,44.5
2022-09-01T11:42:06.837Z,44.2
2022-09-01T11:43:08.103Z,44.5
2022-09-01T11:44:09.032Z,44.2
2022-09-01T11:45:09.635Z,44.0
2022-09-01T11:46:11.406Z,45.4
2022-09-01T11:47:14.302Z,44.3
2022-09-01T11:48:12.455Z,44.6
2022-09-01T11:49:13.056Z,42.4
2022-09-01T11:50:13.663Z,43.2
2022-09-01T11:51:14.615Z,43.1
2022-09-01T11:52:15.433Z,43.2
2022-09-01T11:53:16.097Z,41.5
2022-09-01T11:54:16.675Z,42.1
2022-09-01T11:55:17.279Z,40.6
2022-09-01T11:56:17.884Z,40.8
2022-09-01T11:57:18.508Z,41.8
2022-09-01T11:58:19.115Z,42.1
2022-09-01T11:59:19.723Z,42.1
2022-09-01T12:00:20.320Z,41.6
2022-09-01T12:01:20.924Z,41.6
2022-09-01T12:02:21.572Z,42.5
2022-09-01T12:03:22.675Z,42.4
2022-09-01T12:04:23.542Z,41.3
2022-09-01T12:05:24.135Z,41.7
2022-09-01T12:06:24.741Z,41.7
2022-09-01T12:07:25.344Z,40.8
2022-09-01T12:08:25.946Z,40.6
2022-09-01T12:09:26.550Z,40.9
2022-09-01T12:10:27.152Z,41.5
2022-09-01T12:11:27.753Z,41.9
2022-09-01T12:12:28.362Z,42.1
2022-09-01T12:13:28.965Z,42.0
2022-09-01T12:14:43.399Z,42.3
2022-09-01T12:15:31.163Z,40.5
2022-09-01T12:16:31.811Z,41.0
2022-09-01T12:17:32.378Z,41.4
2022-09-01T12:18:33.006Z,40.0
2022-09-01T12:19:33.604Z,39.6
2022-09-01T12:20:34.208Z,39.7
2022-09-01T12:21:34.812Z,39.5
2022-09-01T12:22:35.437Z,39.1
2022-09-01T12:23:36.044Z,39.7
2022-09-01T12:24:36.652Z,39.7
2022-09-01T12:25:37.250Z,39.5
2022-09-01T12:26:37.852Z,40.0
2022-09-01T12:27:38.460Z,39.4
2022-09-01T12:28:39.058Z,39.5
2022-09-01T12:29:39.660Z,39.0
2022-09-01T12:30:40.285Z,39.2
2022-09-01T12:31:40.917Z,38.9
2022-09-01T12:32:41.504Z,39.6
2022-09-01T12:33:42.164Z,39.3
2022-09-01T12:34:42.722Z,39.0
2022-09-01T12:35:43.323Z,39.0
2022-09-01T12:37:44.532Z,38.8
2022-09-01T12:38:45.137Z,38.2
2022-09-01T12:39:45.737Z,38.6
2022-09-01T12:40:46.370Z,39.2
2022-09-01T12:41:47.255Z,39.5
2022-09-01T12:42:47.852Z,38.9
2022-09-01T12:43:53.359Z,38.6
2022-09-01T12:44:50.596Z,38.4
2022-09-01T12:45:51.228Z,37.9
2022-09-01T12:46:51.804Z,37.6
2022-09-01T12:47:52.404Z,39.1
2022-09-01T12:48:53.009Z,39.6
2022-09-01T12:49:55.682Z,38.8
2022-09-01T12:50:56.155Z,39.5
2022-09-01T12:51:56.808Z,38.9
2022-09-01T12:52:57.431Z,38.3
2022-09-01T12:53:58.479Z,38.8
2022-09-01T12:54:59.228Z,38.8
2022-09-01T12:55:59.829Z,39.5
2022-09-01T12:57:00.432Z,39.7
2022-09-01T12:58:01.035Z,39.7
2022-09-01T12:59:01.641Z,38.9
2022-09-01T13:00:02.249Z,39.7
2022-09-01T13:01:02.919Z,37.9
2022-09-01T13:02:03.580Z,37.8
2022-09-01T13:03:05.456Z,38.3
2022-09-01T13:04:06.217Z,38.7
2022-09-01T13:05:06.783Z,39.3
2022-09-01T13:06:07.988Z,39.7
2022-09-01T13:07:08.981Z,39.4
2022-09-01T13:08:09.571Z,39.4
2022-09-01T13:09:10.393Z,38.9
2022-09-01T13:10:10.949Z,38.3
2022-09-01T13:11:11.718Z,39.0
2022-09-01T13:12:12.288Z,39.5
2022-09-01T13:13:12.966Z,39.1
2022-09-01T13:14:13.533Z,39.2
2022-09-01T13:16:14.785Z,40.0
2022-09-01T13:17:15.352Z,38.4
2022-09-01T13:18:16.006Z,38.9
2022-09-01T13:19:23.995Z,39.6
2022-09-01T13:20:18.187Z,39.8
2022-09-01T13:21:18.789Z,39.4
2022-09-01T13:22:19.391Z,38.2
2022-09-01T13:23:20.120Z,38.9
2022-09-01T13:24:23.344Z,38.8
2022-09-01T13:25:22.403Z,39.7
2022-09-01T13:26:23.006Z,39.2
2022-09-01T13:27:23.872Z,38.2
2022-09-01T13:29:26.129Z,39.2
2022-09-01T13:30:26.729Z,39.7
2022-09-01T13:31:29.281Z,39.8
2022-09-01T13:32:28.863Z,40.3
2022-09-01T13:33:29.480Z,39.7
2022-09-01T13:34:30.096Z,39.8
2022-09-01T13:35:30.673Z,39.6
2022-09-01T13:36:50.604Z,40.0
2022-09-01T13:37:32.892Z,40.4
2022-09-01T13:38:33.493Z,41.4
2022-09-01T13:39:34.100Z,40.7
2022-09-01T13:40:34.757Z,41.2
2022-09-01T13:41:35.320Z,41.3
2022-09-01T13:42:35.919Z,41.3
2022-09-01T13:43:36.579Z,41.3
2022-09-01T13:44:37.141Z,41.1
2022-09-01T13:45:37.782Z,40.7
2022-09-01T13:46:58.943Z,40.5
2022-09-01T13:48:15.249Z,39.1
2022-09-01T13:50:05.401Z,40.0
2022-09-01T13:51:46.324Z,38.9
2022-09-01T13:52:46.929Z,39.7
2022-09-01T13:53:48.526Z,39.6
2022-09-01T13:54:49.128Z,38.9
2022-09-01T13:55:49.799Z,39.5
2022-09-01T13:56:50.387Z,38.9
2022-09-01T13:57:55.187Z,38.9
2022-09-01T13:58:52.589Z,38.9
2022-09-01T13:59:53.196Z,38.7
2022-09-01T14:00:53.835Z,38.3
2022-09-01T14:01:54.408Z,38.0